Time;durP1;ratioP1;P1;durP2;ratioP2;P2;SDS_P1;SDS_P2;PMS_P1;PMS_P2;Temp;Humidity;BMP_temperature;BMP_pressure;BME280_temperature;BME280_humidity;BME280_pressure;Samples;Min_cycle;Max_cycle;Signal;HPM_P1;HPM_P2
2023/01/05 00:01:01;;;;;;;0.90;0.50;;;10.60;99.90;;;;;;5032202;28;20417;-72
2023/01/05 00:03:26;;;;;;;0.87;0.60;;;10.60;99.90;;;;;;5029605;28;20455;-73
2023/01/05 00:05:52;;;;;;;0.77;0.40;;;10.60;99.90;;;;;;5051739;28;20516;-72
2023/01/05 00:08:17;;;;;;;1.93;0.53;;;10.50;99.90;;;;;;5051662;28;20211;-73
2023/01/05 00:24:24;;;;;;;1.00;0.50;;;10.60;99.90;;;;;;5048942;28;20422;-72
2023/01/05 00:26:50;;;;;;;1.30;0.70;;;10.50;99.90;;;;;;5051396;28;20420;-73
2023/01/05 00:29:15;;;;;;;1.13;0.50;;;10.60;99.90;;;;;;5051486;28;20178;-73
2023/01/05 00:31:41;;;;;;;1.03;0.70;;;10.60;99.90;;;;;;5050341;28;20331;-72
2023/01/05 00:34:07;;;;;;;0.90;0.50;;;10.60;99.90;;;;;;5050903;28;20188;-72
2023/01/05 00:36:32;;;;;;;1.63;0.50;;;10.60;99.90;;;;;;5050876;28;20182;-73
2023/01/05 00:38:58;;;;;;;0.90;0.40;;;10.60;99.90;;;;;;5047181;28;20192;-72
2023/01/05 00:41:23;;;;;;;0.90;0.43;;;10.60;99.90;;;;;;5050201;28;20227;-73
2023/01/05 00:43:49;;;;;;;0.90;0.40;;;10.70;99.90;;;;;;5050938;28;20173;-72
2023/01/05 00:46:14;;;;;;;2.20;0.40;;;10.70;99.90;;;;;;5051466;28;20204;-73
2023/01/05 00:48:40;;;;;;;0.80;0.40;;;10.70;99.90;;;;;;5050972;28;20181;-72
2023/01/05 00:51:05;;;;;;;1.10;0.53;;;10.70;99.90;;;;;;5049739;28;20282;-73
2023/01/05 00:53:31;;;;;;;1.63;0.50;;;10.80;99.90;;;;;;5050636;28;20276;-72
2023/01/05 00:55:57;;;;;;;0.80;0.40;;;10.80;99.90;;;;;;5050717;28;20193;-72
2023/01/05 00:58:23;;;;;;;1.40;0.40;;;10.70;99.90;;;;;;5051089;28;20275;-73
2023/01/05 01:00:48;;;;;;;0.80;0.40;;;10.80;99.90;;;;;;5050998;28;21046;-72
2023/01/05 01:03:14;;;;;;;0.97;0.60;;;10.80;99.90;;;;;;5050338;28;20259;-72
2023/01/05 01:05:39;;;;;;;1.30;0.57;;;10.80;99.90;;;;;;5050458;28;20204;-72
2023/01/05 01:08:05;;;;;;;0.83;0.40;;;10.80;99.90;;;;;;5050934;28;20181;-73
2023/01/05 01:10:30;;;;;;;1.83;0.40;;;10.80;99.90;;;;;;5051042;28;20216;-73
2023/01/05 01:12:56;;;;;;;2.13;0.50;;;10.80;99.90;;;;;;5050494;28;20733;-72
2023/01/05 01:15:21;;;;;;;1.00;0.50;;;10.80;99.90;;;;;;5051258;28;20181;-73
2023/01/05 01:17:47;;;;;;;0.90;0.40;;;10.80;99.90;;;;;;5051141;28;20185;-73
2023/01/05 01:20:12;;;;;;;0.90;0.40;;;10.80;99.90;;;;;;5051316;28;20181;-73
2023/01/05 01:22:38;;;;;;;1.10;0.47;;;10.80;99.90;;;;;;5050119;28;20366;-73
2023/01/05 01:25:04;;;;;;;1.00;0.40;;;10.80;99.90;;;;;;5050739;28;20209;-73
2023/01/05 01:27:31;;;;;;;1.50;0.50;;;10.80;99.90;;;;;;5050462;28;20169;-73
2023/01/05 01:29:56;;;;;;;1.10;0.50;;;10.80;99.90;;;;;;5050282;28;20880;-72
2023/01/05 01:32:23;;;;;;;1.20;0.50;;;10.80;99.90;;;;;;5049644;28;20486;-73
2023/01/05 01:34:49;;;;;;;1.23;0.40;;;10.80;99.90;;;;;;5050374;28;20174;-73
2023/01/05 01:37:15;;;;;;;0.80;0.43;;;10.80;99.90;;;;;;5050479;28;20492;-73
2023/01/05 01:39:41;;;;;;;1.73;0.40;;;10.80;99.90;;;;;;5050205;28;20184;-73
2023/01/05 01:42:15;;;;;;;1.00;0.50;;;10.70;99.90;;;;;;5031696;28;20816;-74
2023/01/05 01:44:52;;;;;;;1.00;0.40;;;10.70;99.90;;;;;;5049499;28;20192;-73
2023/01/05 01:47:46;;;;;;;0.80;0.40;;;10.80;99.90;;;;;;5050104;28;20841;-73
2023/01/05 01:50:14;;;;;;;0.80;0.40;;;10.80;99.90;;;;;;5029919;28;20520;-73
2023/01/05 01:52:41;;;;;;;0.80;0.40;;;10.80;99.90;;;;;;5049106;28;20435;-73
2023/01/05 01:55:07;;;;;;;0.80;0.40;;;10.80;99.90;;;;;;5032269;28;20423;-73
2023/01/05 01:57:35;;;;;;;0.90;0.40;;;10.80;99.90;;;;;;5049296;28;20450;-73
2023/01/05 03:35:59;;;;;;;1.10;0.40;;;11.00;99.90;;;;;;5053368;28;20504;-71
2023/01/05 03:38:30;;;;;;;1.17;0.40;;;11.00;99.90;;;;;;5053669;28;20404;-72
2023/01/05 03:41:00;;;;;;;2.73;0.40;;;11.10;99.90;;;;;;5053725;28;20439;-72
2023/01/05 03:43:26;;;;;;;1.83;0.40;;;11.10;99.90;;;;;;5053553;28;20461;-72
2023/01/05 03:45:54;;;;;;;1.00;0.40;;;11.10;99.90;;;;;;5052734;28;20472;-72
2023/01/05 03:48:21;;;;;;;1.00;0.40;;;11.10;99.90;;;;;;5045392;28;20408;-72
2023/01/05 03:50:47;;;;;;;1.00;0.40;;;11.10;99.90;;;;;;5040057;28;20432;-72
2023/01/05 03:53:12;;;;;;;1.10;0.40;;;11.10;99.90;;;;;;5022640;28;20424;-72
2023/01/05 03:55:38;;;;;;;1.00;0.40;;;11.10;99.90;;;;;;5053279;28;20181;-70
2023/01/05 03:58:03;;;;;;;1.00;0.40;;;11.10;99.90;;;;;;5053630;28;20193;-72
2023/01/05 04:00:29;;;;;;;2.13;0.40;;;11.10;99.90;;;;;;5053171;28;20268;-72
2023/01/05 04:02:54;;;;;;;0.90;0.40;;;11.10;99.90;;;;;;5053292;28;20612;-72
2023/01/05 04:05:20;;;;;;;1.70;0.40;;;11.10;99.90;;;;;;5054486;28;20213;-73
2023/01/05 04:07:46;;;;;;;2.17;0.50;;;11.10;99.90;;;;;;5054206;28;20177;-72
2023/01/05 04:10:11;;;;;;;0.83;0.40;;;11.10;99.90;;;;;;5052850;28;20186;-73
2023/01/05 04:12:37;;;;;;;0.80;0.40;;;11.10;99.90;;;;;;5052602;28;20263;-73
2023/01/05 04:15:04;;;;;;;0.80;0.40;;;11.10;99.90;;;;;;5052877;28;20185;-73
2023/01/05 04:17:29;;;;;;;0.70;0.40;;;11.20;99.90;;;;;;5053107;28;20660;-73
2023/01/05 04:19:55;;;;;;;1.00;0.40;;;11.20;99.90;;;;;;5052634;28;20436;-73
2023/01/05 04:22:21;;;;;;;0.70;0.30;;;11.10;99.90;;;;;;5052833;28;20295;-73
2023/01/05 04:24:46;;;;;;;0.70;0.40;;;11.20;99.90;;;;;;5051305;28;20189;-73
2023/01/05 04:27:12;;;;;;;0.70;0.30;;;11.10;99.90;;;;;;5052957;28;20588;-73
2023/01/05 04:29:37;;;;;;;0.70;0.40;;;11.20;99.90;;;;;;5052763;28;20204;-73
2023/01/05 04:32:03;;;;;;;0.70;0.40;;;11.10;99.90;;;;;;5052436;28;20224;-73
2023/01/05 04:34:28;;;;;;;0.70;0.40;;;11.10;99.90;;;;;;5052517;28;20251;-73
2023/01/05 04:36:54;;;;;;;1.10;0.40;;;11.10;99.90;;;;;;5052842;28;20180;-73
2023/01/05 04:39:19;;;;;;;0.97;0.40;;;11.10;99.90;;;;;;5052453;28;20181;-73
2023/01/05 04:41:47;;;;;;;1.53;0.70;;;11.10;99.90;;;;;;5052463;28;20197;-73
2023/01/05 04:44:13;;;;;;;0.80;0.30;;;11.20;99.90;;;;;;5034220;28;20185;-73
2023/01/05 04:46:38;;;;;;;0.80;0.40;;;11.10;99.90;;;;;;5051920;28;20546;-73
2023/01/05 04:49:04;;;;;;;1.10;0.40;;;11.10;99.90;;;;;;5052319;28;20757;-73
2023/01/05 04:51:29;;;;;;;0.80;0.40;;;11.20;99.90;;;;;;5051919;28;20201;-73
2023/01/05 04:53:55;;;;;;;0.90;0.40;;;11.10;99.90;;;;;;5052239;28;20181;-73
2023/01/05 04:56:20;;;;;;;0.80;0.40;;;11.20;99.90;;;;;;5052579;28;20177;-73
2023/01/05 04:58:46;;;;;;;0.90;0.50;;;11.20;99.90;;;;;;5052526;28;20173;-73
2023/01/05 05:01:11;;;;;;;0.80;0.40;;;11.20;99.90;;;;;;5051753;28;20684;-73
2023/01/05 05:03:37;;;;;;;1.40;0.37;;;11.10;99.90;;;;;;5051666;28;20243;-73
2023/01/05 05:06:03;;;;;;;2.00;0.40;;;11.20;99.90;;;;;;5014522;28;20678;-73
2023/01/05 05:08:28;;;;;;;0.80;0.40;;;11.20;99.90;;;;;;5032058;28;20198;-73
2023/01/05 05:10:54;;;;;;;0.77;0.30;;;11.20;99.90;;;;;;5050702;28;20263;-73
2023/01/05 05:13:19;;;;;;;0.90;0.40;;;11.20;99.90;;;;;;5051936;28;20170;-73
2023/01/05 05:15:44;;;;;;;0.90;0.40;;;11.20;99.90;;;;;;5051611;28;20559;-73
2023/01/05 05:18:10;;;;;;;0.80;0.40;;;11.20;99.90;;;;;;5052033;28;20213;-73
2023/01/05 05:20:39;;;;;;;0.90;0.43;;;11.20;99.90;;;;;;5051384;28;20196;-73
2023/01/05 05:23:05;;;;;;;0.77;0.30;;;11.30;99.90;;;;;;5051775;28;20161;-74
2023/01/05 05:25:30;;;;;;;1.37;0.40;;;11.30;99.90;;;;;;5051547;28;20458;-73
2023/01/05 05:27:56;;;;;;;1.20;0.40;;;11.30;99.90;;;;;;5051679;28;20253;-71
2023/01/05 05:30:21;;;;;;;0.93;0.40;;;11.20;99.90;;;;;;5051320;28;20177;-71
2023/01/05 05:32:47;;;;;;;0.80;0.40;;;11.30;99.90;;;;;;5051243;28;20212;-71
2023/01/05 05:35:12;;;;;;;3.63;0.60;;;11.20;99.90;;;;;;5051300;28;20602;-71
2023/01/05 05:37:38;;;;;;;0.80;0.40;;;11.20;99.90;;;;;;5051185;28;20177;-71
2023/01/05 05:40:04;;;;;;;2.00;0.37;;;11.20;99.90;;;;;;5051081;28;20185;-71
2023/01/05 05:42:29;;;;;;;2.47;0.40;;;11.20;99.90;;;;;;5051131;28;20192;-71
2023/01/05 05:44:55;;;;;;;0.80;0.37;;;11.20;99.90;;;;;;5051026;28;20548;-71
2023/01/05 05:47:20;;;;;;;0.80;0.40;;;11.20;99.90;;;;;;5051259;28;20268;-71
2023/01/05 05:49:46;;;;;;;0.80;0.40;;;11.20;99.90;;;;;;5050999;28;20653;-70
2023/01/05 05:52:11;;;;;;;1.47;0.50;;;11.20;99.90;;;;;;5051061;28;20239;-71
2023/01/05 05:54:37;;;;;;;2.13;0.50;;;11.20;99.90;;;;;;5050898;28;20185;-70
2023/01/05 05:57:02;;;;;;;1.00;0.60;;;11.20;99.90;;;;;;5051078;28;20181;-70
2023/01/05 05:59:28;;;;;;;0.80;0.43;;;11.10;99.90;;;;;;5051594;28;20181;-71
2023/01/05 06:01:53;;;;;;;2.50;0.80;;;11.10;99.90;;;;;;5052672;28;20193;-70
2023/01/05 06:04:19;;;;;;;1.43;0.50;;;11.10;99.90;;;;;;5051231;28;20181;-70
2023/01/05 06:06:44;;;;;;;2.03;0.70;;;11.00;99.90;;;;;;5050631;28;20564;-72
2023/01/05 06:09:10;;;;;;;1.60;0.70;;;11.00;99.90;;;;;;5051034;28;20665;-72
2023/01/05 06:11:35;;;;;;;1.67;0.60;;;11.00;99.90;;;;;;5050516;28;20193;-71
2023/01/05 06:14:01;;;;;;;1.60;0.63;;;11.00;99.90;;;;;;5051034;28;20592;-71
2023/01/05 06:16:27;;;;;;;1.57;0.50;;;10.90;99.90;;;;;;5050720;28;20188;-72
2023/01/05 06:18:53;;;;;;;2.03;0.50;;;10.80;99.90;;;;;;5050674;28;20458;-72
2023/01/05 06:21:20;;;;;;;2.30;0.67;;;10.80;99.90;;;;;;5050492;28;20436;-72
2023/01/05 06:23:46;;;;;;;2.40;0.80;;;10.70;99.90;;;;;;5050874;28;20711;-72
2023/01/05 06:26:12;;;;;;;1.33;0.77;;;10.60;99.90;;;;;;5050732;28;20458;-71
2023/01/05 06:28:37;;;;;;;3.77;0.70;;;10.50;99.90;;;;;;5050905;28;20732;-71
2023/01/05 06:31:03;;;;;;;2.53;0.60;;;10.40;99.90;;;;;;5050538;28;20212;-70
2023/01/05 06:33:28;;;;;;;1.80;0.73;;;10.30;99.90;;;;;;5050464;28;20181;-71
2023/01/05 06:35:54;;;;;;;3.90;1.07;;;10.30;99.90;;;;;;5050629;28;20226;-70
2023/01/05 06:38:20;;;;;;;4.07;0.90;;;10.20;99.90;;;;;;5050929;28;20171;-71
2023/01/05 06:40:46;;;;;;;3.57;1.10;;;10.20;99.90;;;;;;5050326;28;20183;-70
2023/01/05 06:43:12;;;;;;;5.73;3.20;;;10.10;99.90;;;;;;5049676;28;20510;-71
2023/01/05 06:45:37;;;;;;;2.70;1.00;;;10.10;99.90;;;;;;5050470;28;20899;-71
2023/01/05 06:48:03;;;;;;;2.17;0.80;;;10.10;99.90;;;;;;5051730;28;20177;-71
2023/01/05 06:50:30;;;;;;;3.00;0.90;;;10.10;99.90;;;;;;5054462;28;20178;-71
2023/01/05 06:52:56;;;;;;;4.30;2.00;;;10.10;99.90;;;;;;5054346;28;20190;-72
2023/01/05 06:55:22;;;;;;;5.90;1.30;;;10.10;99.90;;;;;;5055018;28;20777;-72
2023/01/05 06:57:47;;;;;;;2.50;0.60;;;10.00;99.90;;;;;;5054556;28;20418;-72
2023/01/05 07:00:14;;;;;;;801.87;75.80;;;10.00;99.90;;;;;;5054793;28;20710;-72
2023/01/05 07:02:39;;;;;;;3.80;0.70;;;10.00;99.90;;;;;;5054212;28;20254;-71
2023/01/05 07:05:05;;;;;;;2.17;0.80;;;10.00;99.90;;;;;;5054330;28;20449;-72
2023/01/05 07:07:31;;;;;;;4.83;1.50;;;10.00;99.90;;;;;;5054348;28;20176;-71
2023/01/05 07:09:56;;;;;;;2.00;0.90;;;10.00;99.90;;;;;;5054409;28;20413;-71
2023/01/05 07:12:22;;;;;;;2.10;0.80;;;10.00;99.90;;;;;;5053899;28;20196;-71
2023/01/05 07:14:47;;;;;;;3.23;1.00;;;10.00;99.90;;;;;;5054302;28;20211;-71
2023/01/05 07:17:13;;;;;;;235.57;102.80;;;10.00;99.90;;;;;;5054490;28;20472;-71
2023/01/05 07:19:39;;;;;;;2.37;0.90;;;10.10;99.90;;;;;;5054123;28;20172;-71
2023/01/05 07:22:04;;;;;;;4.50;0.90;;;10.00;99.90;;;;;;5054119;28;20196;-71
2023/01/05 07:24:30;;;;;;;575.87;103.63;;;10.00;99.90;;;;;;5054178;28;20262;-71
2023/01/05 07:26:58;;;;;;;198.03;14.37;;;10.00;99.90;;;;;;5054325;28;20211;-71
2023/01/05 07:29:23;;;;;;;4.40;0.83;;;10.00;99.90;;;;;;5054070;28;20637;-71
2023/01/05 07:31:51;;;;;;;6.97;1.07;;;10.00;99.90;;;;;;5053649;28;20512;-71
2023/01/05 07:34:17;;;;;;;4.73;1.10;;;10.00;99.90;;;;;;5054272;28;20191;-71
2023/01/05 07:36:42;;;;;;;8.80;1.00;;;10.00;99.90;;;;;;5053869;28;20446;-70
2023/01/05 07:39:08;;;;;;;3.67;0.80;;;10.00;99.90;;;;;;5053834;28;20430;-70
2023/01/05 07:41:33;;;;;;;13.43;12.33;;;10.10;99.90;;;;;;5053256;28;20189;-71
2023/01/05 07:43:59;;;;;;;2.13;0.90;;;10.10;99.90;;;;;;5053818;28;20179;-71
2023/01/05 07:46:24;;;;;;;3.80;0.80;;;10.10;99.90;;;;;;5053432;28;20222;-71
2023/01/05 07:48:50;;;;;;;8.60;1.77;;;10.10;99.90;;;;;;5053622;28;20204;-71
2023/01/05 07:51:16;;;;;;;4.10;0.80;;;10.20;99.90;;;;;;5053232;28;20193;-71
2023/01/05 07:53:42;;;;;;;3.50;0.90;;;10.20;99.90;;;;;;5053391;28;20243;-71
2023/01/05 07:56:09;;;;;;;6.63;0.97;;;10.20;99.90;;;;;;5053780;28;21201;-71
2023/01/05 07:58:35;;;;;;;3.27;1.20;;;10.20;99.90;;;;;;5053245;28;20263;-71
2023/01/05 08:01:05;;;;;;;9.63;1.17;;;10.20;99.90;;;;;;5053107;28;20860;-71
2023/01/05 08:03:31;;;;;;;2.13;0.80;;;10.20;99.90;;;;;;5035644;28;20609;-71
2023/01/05 08:05:56;;;;;;;5.83;1.00;;;10.30;99.90;;;;;;5053572;28;20474;-71
2023/01/05 08:08:22;;;;;;;2.77;2.50;;;10.30;99.90;;;;;;5054134;28;20636;-71
2023/01/05 08:10:47;;;;;;;2.77;0.90;;;10.30;99.90;;;;;;5035613;28;20692;-71
2023/01/05 08:15:59;;;;;;;4.93;1.50;;;10.30;99.90;;;;;;5053283;28;20189;-71
2023/01/05 08:18:25;;;;;;;6.13;1.37;;;10.30;99.90;;;;;;5052887;28;20426;-71
2023/01/05 08:20:52;;;;;;;6.73;1.30;;;10.30;99.90;;;;;;5052837;28;20454;-70
2023/01/05 08:23:18;;;;;;;4.40;1.40;;;10.30;99.90;;;;;;5052987;28;20405;-71
2023/01/05 08:25:43;;;;;;;5.03;0.90;;;10.30;99.90;;;;;;5053879;28;20550;-71
2023/01/05 08:28:09;;;;;;;8.33;1.47;;;10.40;99.90;;;;;;5053747;28;20416;-71
2023/01/05 08:30:34;;;;;;;4.47;1.90;;;10.40;99.90;;;;;;5053007;28;20192;-70
2023/01/05 08:33:00;;;;;;;4.40;1.23;;;10.40;99.90;;;;;;5053190;28;20262;-71
2023/01/05 08:35:25;;;;;;;9.27;1.10;;;10.40;99.90;;;;;;5053817;28;20589;-70
2023/01/05 08:37:51;;;;;;;9.50;1.80;;;10.50;99.90;;;;;;5052771;28;20181;-71
2023/01/05 08:40:16;;;;;;;6.90;1.50;;;10.50;99.90;;;;;;5052761;28;20181;-70
2023/01/05 08:42:42;;;;;;;2.57;1.10;;;10.50;99.90;;;;;;5052172;28;20215;-71
2023/01/05 08:45:09;;;;;;;4.40;0.90;;;10.50;99.90;;;;;;5052354;28;20201;-71
2023/01/05 08:47:34;;;;;;;6.13;1.20;;;10.50;99.90;;;;;;5052376;28;20161;-70
2023/01/05 08:50:00;;;;;;;7.40;1.13;;;10.60;99.90;;;;;;5052305;28;20413;-70
2023/01/05 08:52:25;;;;;;;10.93;1.30;;;10.60;99.90;;;;;;5052100;28;20200;-71
2023/01/05 08:54:51;;;;;;;2.40;0.90;;;10.60;99.90;;;;;;5052204;28;20173;-70
2023/01/05 08:57:16;;;;;;;2.10;1.20;;;10.60;99.90;;;;;;5052436;28;20180;-71
2023/01/05 08:59:42;;;;;;;10.17;1.30;;;10.60;99.90;;;;;;5051952;28;20182;-70
2023/01/05 09:02:11;;;;;;;5.33;1.00;;;10.60;99.90;;;;;;5052364;28;20218;-71
2023/01/05 09:04:36;;;;;;;5.73;1.20;;;10.60;99.90;;;;;;5052118;28;20571;-71
2023/01/05 09:07:02;;;;;;;7.90;1.70;;;10.60;99.90;;;;;;5052287;28;20457;-71
2023/01/05 09:09:28;;;;;;;5.87;1.97;;;10.60;99.90;;;;;;5052151;28;20223;-71
2023/01/05 09:11:53;;;;;;;8.00;1.10;;;10.60;99.90;;;;;;5051193;28;20202;-71
2023/01/05 09:14:19;;;;;;;6.90;1.30;;;10.60;99.90;;;;;;5052151;28;20644;-71
2023/01/05 09:16:44;;;;;;;5.13;1.27;;;10.60;99.90;;;;;;5051707;28;20227;-71
2023/01/05 09:19:10;;;;;;;7.43;2.37;;;10.70;99.90;;;;;;5051947;28;20229;-70
2023/01/05 09:21:38;;;;;;;9.40;1.30;;;10.70;99.90;;;;;;5051714;28;20820;-71
2023/01/05 09:24:04;;;;;;;6.73;2.37;;;10.70;99.90;;;;;;5051817;28;20512;-71
2023/01/05 09:26:30;;;;;;;8.23;1.90;;;10.70;99.90;;;;;;5051559;28;20451;-71
2023/01/05 09:28:55;;;;;;;6.27;1.70;;;10.80;99.90;;;;;;5051789;28;20423;-70
2023/01/05 09:31:22;;;;;;;10.53;1.57;;;10.80;99.90;;;;;;5051179;28;20280;-70
2023/01/05 09:33:48;;;;;;;6.33;1.43;;;10.80;99.90;;;;;;5033660;28;20175;-71
2023/01/05 09:36:16;;;;;;;11.80;2.97;;;10.90;99.90;;;;;;5051906;28;20978;-70
2023/01/05 09:38:41;;;;;;;6.50;1.13;;;10.90;99.90;;;;;;5051394;28;20572;-71
2023/01/05 09:41:27;;;;;;;12.77;1.70;;;11.00;99.90;;;;;;5051417;28;20446;-70
2023/01/05 09:43:58;;;;;;;12.83;1.73;;;11.00;99.90;;;;;;5051576;28;20173;-70
2023/01/05 09:46:33;;;;;;;5.00;1.30;;;11.10;99.90;;;;;;5051372;28;20460;-70
2023/01/05 09:49:03;;;;;;;15.50;1.90;;;11.10;99.90;;;;;;5051481;28;20447;-70
2023/01/05 09:51:29;;;;;;;11.23;1.83;;;11.10;99.90;;;;;;5033088;28;20494;-71
2023/01/05 09:53:55;;;;;;;10.67;2.40;;;11.20;99.90;;;;;;5051272;28;20416;-70
2023/01/05 09:56:30;;;;;;;9.60;1.40;;;11.10;99.90;;;;;;5051396;28;20438;-70
2023/01/05 09:59:12;;;;;;;15.87;2.20;;;11.10;99.90;;;;;;5051252;28;20762;-70
2023/01/05 10:01:39;;;;;;;9.23;2.40;;;11.20;99.90;;;;;;5050883;28;20437;-70
2023/01/05 10:04:18;;;;;;;7.60;2.10;;;11.10;99.90;;;;;;5051215;28;20419;-70
2023/01/05 10:06:49;;;;;;;7.50;1.57;;;11.10;99.90;;;;;;5051035;28;20451;-70
2023/01/05 10:09:22;;;;;;;7.27;2.60;;;11.20;99.90;;;;;;5051216;28;20416;-70
2023/01/05 10:14:47;;;;;;;10.60;1.73;;;11.20;99.90;;;;;;5051667;28;20423;-70
2023/01/05 10:17:19;;;;;;;9.37;1.40;;;11.20;99.90;;;;;;5051545;28;20502;-70
2023/01/05 10:19:46;;;;;;;10.80;2.17;;;11.20;99.90;;;;;;5051202;28;20419;-70
2023/01/05 10:22:37;;;;;;;12.33;2.17;;;11.30;99.90;;;;;;5051130;28;20431;-70
2023/01/05 10:25:21;;;;;;;14.53;2.40;;;11.30;99.90;;;;;;5055388;28;20951;-70
2023/01/05 10:28:24;;;;;;;6.63;1.33;;;11.30;99.90;;;;;;5055614;28;20418;-70
2023/01/05 10:31:16;;;;;;;8.70;1.90;;;11.40;99.90;;;;;;5018937;28;20966;-71
2023/01/05 10:33:55;;;;;;;7.20;2.00;;;11.40;99.90;;;;;;5055139;28;20411;-70
2023/01/05 10:36:45;;;;;;;12.43;2.00;;;11.40;99.90;;;;;;5055221;28;20415;-71
2023/01/05 10:39:43;;;;;;;9.97;2.43;;;11.40;99.90;;;;;;5055292;28;20825;-70
2023/01/05 10:42:36;;;;;;;10.20;2.30;;;11.40;99.90;;;;;;5003988;28;20428;-70
2023/01/05 10:45:03;;;;;;;59.00;3.50;;;11.40;99.90;;;;;;5054949;28;20457;-70
2023/01/05 10:47:31;;;;;;;40.93;2.83;;;11.50;99.90;;;;;;5054807;28;20404;-70
2023/01/05 10:49:58;;;;;;;37.67;3.30;;;11.50;99.90;;;;;;5054944;28;20416;-68
2023/01/05 10:52:23;;;;;;;30.50;2.30;;;11.50;99.90;;;;;;5054485;28;20442;-70
2023/01/05 10:54:54;;;;;;;30.37;2.67;;;11.50;99.90;;;;;;5055161;28;20773;-70
2023/01/05 10:57:29;;;;;;;35.27;4.13;;;11.50;99.90;;;;;;5055042;28;20212;-70
2023/01/05 11:00:00;;;;;;;51.70;3.80;;;11.50;99.90;;;;;;5054833;28;20441;-72
2023/01/05 11:02:34;;;;;;;16.13;3.30;;;11.50;99.90;;;;;;5054704;28;20434;-70
2023/01/05 11:05:27;;;;;;;12.07;2.40;;;11.40;99.90;;;;;;5054752;28;20496;-70
2023/01/05 11:07:59;;;;;;;9.67;2.63;;;11.40;99.90;;;;;;5042707;28;20514;-70
2023/01/05 11:10:31;;;;;;;8.20;2.10;;;11.40;99.90;;;;;;5055021;28;20408;-70
2023/01/05 11:13:15;;;;;;;8.53;1.80;;;11.40;99.90;;;;;;5054353;28;20431;-71
2023/01/05 11:15:46;;;;;;;12.07;2.33;;;11.40;99.90;;;;;;5054437;28;20507;-71
2023/01/05 11:18:24;;;;;;;9.47;2.43;;;11.40;99.90;;;;;;5054743;28;20986;-71
2023/01/05 11:21:12;;;;;;;11.30;1.50;;;11.50;99.90;;;;;;5054400;28;20503;-70
2023/01/05 11:23:44;;;;;;;10.97;1.77;;;11.40;99.90;;;;;;5054105;28;20466;-70
2023/01/05 11:26:11;;;;;;;7.70;2.00;;;11.40;99.90;;;;;;5054421;28;20522;-70
2023/01/05 11:28:37;;;;;;;13.33;2.50;;;11.40;99.90;;;;;;5054279;28;20467;-70
2023/01/05 11:31:04;;;;;;;13.07;2.33;;;11.50;99.90;;;;;;5053900;28;20759;-69
2023/01/05 11:33:34;;;;;;;15.27;2.83;;;11.50;99.90;;;;;;5053938;28;20177;-69
2023/01/05 11:36:00;;;;;;;13.53;2.50;;;11.40;99.90;;;;;;5053997;28;20451;-70
2023/01/05 11:38:29;;;;;;;10.60;1.73;;;11.40;99.90;;;;;;5054261;28;20856;-70
2023/01/05 11:40:56;;;;;;;8.23;1.80;;;11.50;99.90;;;;;;5053859;28;20412;-70
2023/01/05 11:43:25;;;;;;;7.47;1.67;;;11.50;99.90;;;;;;5053922;28;20924;-70
2023/01/05 11:45:53;;;;;;;6.87;1.50;;;11.50;99.90;;;;;;5053709;28;21002;-70
2023/01/05 11:48:24;;;;;;;10.33;1.43;;;11.50;99.90;;;;;;5054143;28;20404;-70
2023/01/05 11:50:52;;;;;;;12.13;2.37;;;11.50;99.90;;;;;;5035735;28;20565;-70
2023/01/05 11:53:35;;;;;;;8.40;2.13;;;11.50;99.90;;;;;;5053832;28;20400;-70
2023/01/05 11:56:04;;;;;;;14.20;3.00;;;11.50;99.90;;;;;;5053798;28;20414;-71
2023/01/05 11:58:40;;;;;;;12.03;5.33;;;11.50;99.90;;;;;;5053704;28;20412;-70
2023/01/05 12:01:43;;;;;;;13.47;3.23;;;11.50;99.90;;;;;;5053224;28;20436;-69
2023/01/05 12:04:26;;;;;;;10.00;2.77;;;11.50;99.90;;;;;;5053698;28;20454;-70
2023/01/05 12:07:13;;;;;;;13.10;2.90;;;11.50;99.90;;;;;;5053211;28;20457;-71
2023/01/05 12:09:57;;;;;;;9.10;1.80;;;11.50;99.90;;;;;;5053549;28;20411;-70
2023/01/05 12:12:38;;;;;;;12.20;2.30;;;11.50;99.90;;;;;;5053479;28;20427;-70
2023/01/05 12:15:28;;;;;;;10.60;1.80;;;11.50;99.90;;;;;;5053338;28;20412;-70
2023/01/05 12:18:18;;;;;;;11.80;1.40;;;11.40;99.90;;;;;;5053346;28;20424;-70
2023/01/05 12:20:55;;;;;;;7.70;1.90;;;11.50;99.90;;;;;;5052615;28;20430;-70
2023/01/05 12:23:31;;;;;;;10.10;2.00;;;11.50;99.90;;;;;;5053069;28;20408;-70
2023/01/05 12:26:15;;;;;;;8.70;2.30;;;11.50;99.90;;;;;;5034970;28;20843;-70
2023/01/05 12:28:57;;;;;;;11.40;3.03;;;11.50;99.90;;;;;;5052597;28;20427;-70
2023/01/05 12:31:30;;;;;;;9.43;2.47;;;11.50;99.90;;;;;;5051830;28;20458;-70
2023/01/05 12:34:20;;;;;;;13.00;2.43;;;11.50;99.90;;;;;;5053235;28;20412;-70
2023/01/05 12:37:15;;;;;;;11.80;2.57;;;11.60;99.90;;;;;;5052366;28;20475;-70
2023/01/05 12:40:02;;;;;;;8.30;1.97;;;11.60;99.90;;;;;;5052432;28;20784;-70
2023/01/05 12:42:52;;;;;;;23.30;3.13;;;11.50;99.90;;;;;;5052370;28;20509;-70
2023/01/05 12:45:24;;;;;;;7.53;1.97;;;11.60;99.90;;;;;;5052478;28;20473;-70
2023/01/05 12:48:20;;;;;;;7.90;2.10;;;11.60;99.90;;;;;;5052023;28;20563;-70
2023/01/05 12:50:54;;;;;;;16.20;2.63;;;11.60;99.90;;;;;;5052336;28;20408;-70
2023/01/05 12:53:34;;;;;;;6.80;1.77;;;11.60;99.90;;;;;;5052569;28;20412;-70
2023/01/05 12:56:10;;;;;;;13.37;2.73;;;11.60;99.90;;;;;;5052592;28;20435;-70
2023/01/05 12:58:45;;;;;;;15.97;2.67;;;11.60;99.90;;;;;;5052476;28;20432;-70
2023/01/05 13:01:24;;;;;;;8.10;2.17;;;11.60;99.90;;;;;;5052330;28;20435;-70
2023/01/05 13:03:58;;;;;;;4.40;1.57;;;11.60;99.90;;;;;;5052169;28;20919;-70
2023/01/05 13:06:29;;;;;;;7.87;2.20;;;11.60;99.90;;;;;;5051979;28;20469;-70
2023/01/05 13:09:03;;;;;;;6.17;1.77;;;11.60;99.90;;;;;;5052158;28;20419;-70
2023/01/05 13:11:37;;;;;;;13.43;3.10;;;11.50;99.90;;;;;;5051848;28;20427;-70
2023/01/05 13:14:09;;;;;;;11.77;2.10;;;11.60;99.90;;;;;;5052366;28;20415;-70
2023/01/05 13:16:41;;;;;;;10.23;2.77;;;11.60;99.90;;;;;;5051648;28;20426;-70
2023/01/05 13:19:35;;;;;;;8.33;2.20;;;11.60;99.90;;;;;;5052002;28;20912;-70
2023/01/05 13:22:10;;;;;;;13.07;2.27;;;11.60;99.90;;;;;;5051329;28;20858;-70
2023/01/05 13:24:49;;;;;;;11.13;2.80;;;11.60;99.90;;;;;;5051833;28;20423;-70
2023/01/05 13:27:15;;;;;;;13.60;2.27;;;11.60;99.90;;;;;;5051898;28;20459;-70
2023/01/05 13:29:46;;;;;;;6.20;1.90;;;11.60;99.90;;;;;;5051605;28;20901;-70
2023/01/05 13:32:30;;;;;;;13.70;1.83;;;11.60;99.90;;;;;;5051674;28;20443;-70
2023/01/05 13:35:19;;;;;;;7.13;1.90;;;11.60;99.90;;;;;;5051855;28;20420;-70
2023/01/05 13:38:06;;;;;;;12.90;1.73;;;11.60;99.90;;;;;;5051480;28;20974;-70
2023/01/05 13:40:50;;;;;;;10.30;2.93;;;11.60;99.90;;;;;;5039777;28;20416;-70
2023/01/05 13:43:28;;;;;;;11.10;3.00;;;11.70;99.90;;;;;;5031829;28;20417;-71
2023/01/05 13:46:00;;;;;;;8.83;1.80;;;11.70;99.90;;;;;;5039557;28;21028;-69
2023/01/05 13:48:47;;;;;;;11.23;2.80;;;11.60;99.90;;;;;;5051478;28;20462;-70
2023/01/05 13:51:43;;;;;;;14.80;2.57;;;11.60;99.90;;;;;;5051466;28;20807;-70
2023/01/05 13:54:27;;;;;;;11.10;2.17;;;11.60;99.90;;;;;;5051346;28;20416;-70
2023/01/05 13:56:53;;;;;;;10.40;2.00;;;11.60;99.90;;;;;;5032575;28;20456;-70
2023/01/05 13:59:32;;;;;;;8.00;1.90;;;11.50;99.90;;;;;;5012995;28;20462;-71
2023/01/05 14:01:59;;;;;;;10.83;2.03;;;11.50;99.90;;;;;;5030451;28;20436;-71
2023/01/05 14:04:32;;;;;;;6.20;2.70;;;11.50;99.90;;;;;;5043538;28;20475;-71
2023/01/05 14:07:01;;;;;;;5.83;2.40;;;11.50;99.90;;;;;;5050751;28;20846;-71
2023/01/05 14:09:46;;;;;;;10.47;2.67;;;11.50;99.90;;;;;;5050095;28;20463;-71
2023/01/05 14:12:15;;;;;;;46.33;4.43;;;11.50;99.90;;;;;;5038884;28;20432;-70
2023/01/05 14:15:11;;;;;;;13.27;2.40;;;11.50;99.90;;;;;;5046302;28;20511;-70
2023/01/05 14:17:52;;;;;;;14.90;1.90;;;11.40;99.90;;;;;;5030470;28;20789;-71
2023/01/05 14:20:40;;;;;;;109.53;9.00;;;11.40;99.90;;;;;;5031485;28;20416;-71
2023/01/05 14:23:21;;;;;;;10.70;1.77;;;11.40;99.90;;;;;;5046971;28;20726;-71
2023/01/05 14:25:52;;;;;;;10.77;1.70;;;11.40;99.90;;;;;;5051070;28;20967;-71
2023/01/05 14:28:40;;;;;;;63.73;6.40;;;11.30;99.90;;;;;;5051346;28;20415;-68
2023/01/05 14:31:15;;;;;;;18.30;2.40;;;11.30;99.90;;;;;;5050843;28;20448;-67
2023/01/05 14:33:51;;;;;;;20.10;3.47;;;11.30;99.90;;;;;;5050751;28;20451;-69
2023/01/05 14:36:23;;;;;;;15.40;2.87;;;11.30;99.90;;;;;;5051199;28;20779;-69
2023/01/05 14:38:49;;;;;;;21.67;4.37;;;11.30;99.90;;;;;;5051012;28;21023;-68
2023/01/05 14:41:22;;;;;;;15.90;2.27;;;11.20;99.90;;;;;;5050577;28;20469;-68
2023/01/05 14:43:56;;;;;;;18.77;2.20;;;11.30;99.90;;;;;;5038135;28;20180;-69
2023/01/05 14:46:23;;;;;;;12.47;2.87;;;11.20;99.90;;;;;;5050870;28;20553;-69
2023/01/05 14:49:09;;;;;;;9.13;3.23;;;11.20;99.90;;;;;;5051644;28;20404;-71
2023/01/05 14:51:35;;;;;;;10.90;2.53;;;11.30;99.90;;;;;;5050477;28;20423;-71
2023/01/05 14:54:03;;;;;;;14.27;2.80;;;11.20;99.90;;;;;;5051159;28;20792;-72